Achilles, Virginia
Current Conditions -  °F | °C
As of 3:54 AM on Tuesday 21 Oct 2014 (Local Time) from KPHF Reporting Station
Clear Clear  
Wind Chill: 61°   Ceiling: Unl
Heat Index: 61°   Visibility: 10mi
Dew Point: 55°   Wind: 5mph
Humidity: 81%   Direction: 230°SW
Pressure: 29.91"   Gusts: NA
Location:  37.28°N, 76.44°W
Report Text: KPHF 210754Z 23004KT 10SM CLR 16/13 A2991 RMK AO2 SLP127 T01610128
Loading
Personal Weather Stations






























Interactive Weather Map
Tropical Storm Tracking
New forecast layout! Learn more

10-Day Weather Forecast

Advertisements
Track Severe Weather on mobile